createdAt,value
2022-08-17T00:04:22.635Z,0.01
2022-08-17T00:07:22.755Z,0
2022-08-17T02:04:05.301Z,0.01
2022-08-17T02:06:27.390Z,0
2022-08-17T02:58:34.862Z,0.01
2022-08-17T03:00:43.101Z,0
2022-08-17T03:26:22.668Z,0.01
2022-08-17T03:33:52.217Z,0.02
2022-08-17T03:38:44.023Z,0.04
2022-08-17T03:41:20.005Z,0.06
2022-08-17T03:43:41.973Z,0.09
2022-08-17T03:45:49.632Z,0.13
2022-08-17T03:48:46.019Z,0.21
2022-08-17T03:51:28.451Z,0.33
2022-08-17T03:53:56.651Z,0.46
2022-08-17T03:56:10.601Z,0.6
2022-08-17T03:58:10.375Z,0.8
2022-08-17T04:00:58.965Z,1.2
2022-08-17T04:03:13.602Z,1.93
2022-08-17T04:05:14.287Z,3.15
2022-08-17T04:08:03.705Z,5.56
2022-08-17T04:10:41.338Z,7.61
2022-08-17T04:13:00.272Z,8.82
2022-08-17T04:15:07.171Z,9.49
2022-08-17T04:18:02.968Z,7.69
2022-08-17T04:20:44.517Z,9.03
2022-08-17T04:23:11.828Z,10.42
2022-08-17T04:25:25.086Z,12.37
2022-08-17T04:27:24.129Z,14.73
2022-08-17T04:30:11.753Z,17.16
2022-08-17T04:33:00.424Z,21.06
2022-08-17T04:35:04.578Z,25.85
2022-08-17T04:37:09.698Z,30.97
2022-08-17T04:40:04.260Z,34.33
2022-08-17T04:42:43.306Z,39.38
2022-08-17T04:45:08.737Z,40.88
2022-08-17T04:47:20.091Z,44.62
2022-08-17T04:50:20.717Z,48.82
2022-08-17T04:53:06.362Z,55.84
2022-08-17T04:55:37.614Z,60.6
2022-08-17T04:57:55.023Z,63.94
2022-08-17T04:59:58.372Z,70.5
2022-08-17T05:02:50.808Z,67.62
2022-08-17T05:05:28.563Z,70.82
2022-08-17T05:07:52.517Z,77.98
2022-08-17T05:10:02.213Z,80.84
2022-08-17T05:13:00.521Z,91.12
2022-08-17T05:15:45.305Z,96.52
2022-08-17T05:18:14.983Z,98.56
2022-08-17T05:20:30.828Z,117.08
2022-08-17T05:22:32.580Z,137.84
2022-08-17T05:25:25.670Z,143.44
2022-08-17T05:27:59.322Z,170.8
2022-08-17T05:30:21.337Z,204.1
2022-08-17T05:32:37.472Z,237.6
2022-08-17T05:35:26.021Z,254.8
2022-08-17T05:38:08.502Z,292
2022-08-17T05:40:36.928Z,289.6
2022-08-17T05:42:51.202Z,264.4
2022-08-17T05:44:50.982Z,211.2
2022-08-17T05:47:39.322Z,208
2022-08-17T05:50:13.867Z,214.3
2022-08-17T05:52:34.065Z,214.6
2022-08-17T05:54:40.285Z,218
2022-08-17T05:57:35.138Z,199.3
2022-08-17T06:00:15.738Z,186.2
2022-08-17T06:02:47.157Z,183.2
2022-08-17T06:04:54.415Z,188.4
2022-08-17T06:06:52.506Z,192.9
2022-08-17T06:09:39.279Z,196.1
2022-08-17T06:12:14.392Z,194.3
2022-08-17T06:14:30.609Z,196.2
2022-08-17T06:16:34.912Z,211
2022-08-17T06:19:28.166Z,244.8
2022-08-17T06:22:07.138Z,260.6
2022-08-17T06:24:31.958Z,277.1
2022-08-17T06:26:43.145Z,269.3
2022-08-17T06:29:41.822Z,256.9
2022-08-17T06:32:26.869Z,264.7
2022-08-17T06:34:57.660Z,293.3
2022-08-17T06:37:14.451Z,283.8
2022-08-17T06:39:16.556Z,260.3
2022-08-17T06:42:07.722Z,240.9
2022-08-17T06:44:50.665Z,227.8
2022-08-17T06:47:07.919Z,231
2022-08-17T06:49:16.689Z,236.5
2022-08-17T06:52:37.628Z,251.2
2022-08-17T06:54:57.812Z,317
2022-08-17T06:57:26.944Z,371.3
2022-08-17T06:59:53.272Z,343.3
2022-08-17T07:01:42.568Z,306.2
2022-08-17T07:04:31.961Z,277.4
2022-08-17T07:07:07.063Z,250.1
2022-08-17T07:09:28.254Z,231.5
2022-08-17T07:11:35.128Z,203.1
2022-08-17T07:14:30.830Z,185.7
2022-08-17T07:17:12.463Z,181.2
2022-08-17T07:19:39.904Z,184.8
2022-08-17T07:21:53.002Z,196.5
2022-08-17T07:23:52.134Z,205.8
2022-08-17T07:26:39.960Z,235.2
2022-08-17T07:29:13.620Z,246.5
2022-08-17T07:31:32.508Z,259.9
2022-08-17T07:33:37.830Z,258.3
2022-08-17T07:36:31.779Z,288.4
2022-08-17T07:39:11.416Z,314.6
2022-08-17T07:41:53.008Z,336.8
2022-08-17T07:43:48.280Z,346.2
2022-08-17T07:46:48.408Z,337.1
2022-08-17T07:49:34.487Z,350.5
2022-08-17T07:52:24.386Z,380
2022-08-17T07:54:23.871Z,397.7
2022-08-17T07:56:27.363Z,409.1
2022-08-17T07:59:23.135Z,415
2022-08-17T08:01:57.920Z,401.9
2022-08-17T08:04:29.270Z,351.5
2022-08-17T08:06:30.698Z,308.4
2022-08-17T08:09:29.091Z,263
2022-08-17T08:12:15.859Z,250.1
2022-08-17T08:14:43.338Z,228.1
2022-08-17T08:16:59.155Z,213
2022-08-17T08:19:00.674Z,198.9
2022-08-17T08:21:51.149Z,181.8
2022-08-17T08:24:30.082Z,176.8
2022-08-17T08:26:48.933Z,174
2022-08-17T08:28:56.832Z,178.4
2022-08-17T08:31:53.509Z,192.4
2022-08-17T08:34:44.870Z,201
2022-08-17T08:37:16.143Z,213.2
2022-08-17T08:39:18.117Z,226.4
2022-08-17T08:41:17.972Z,238.4
2022-08-17T08:44:06.546Z,266.6
2022-08-17T08:46:41.193Z,293.4
2022-08-17T08:49:04.999Z,292.2
2022-08-17T08:51:07.484Z,260.4
2022-08-17T08:54:02.411Z,247.7
2022-08-17T08:56:53.966Z,265.1
2022-08-17T08:59:09.485Z,289.6
2022-08-17T09:01:21.919Z,301.2
2022-08-17T09:03:20.022Z,292.9
2022-08-17T09:06:06.849Z,265.9
2022-08-17T09:08:39.421Z,258.9
2022-08-17T09:10:57.855Z,263.2
2022-08-17T09:13:09.483Z,254.9
2022-08-17T09:15:54.491Z,249.6
2022-08-17T09:18:59.527Z,256.5
2022-08-17T09:20:57.994Z,279.5
2022-08-17T09:23:08.394Z,286.8
2022-08-17T09:26:07.705Z,303
2022-08-17T09:28:52.880Z,318
2022-08-17T09:31:23.689Z,330.2
2022-08-17T09:33:40.156Z,349.2
2022-08-17T09:35:42.620Z,391
2022-08-17T09:38:33.835Z,483.2
2022-08-17T09:41:10.790Z,535.2
2022-08-17T09:43:33.673Z,581.1
2022-08-17T09:45:42.295Z,597.9
2022-08-17T09:48:39.660Z,608.4
2022-08-17T09:51:22.917Z,634.2
2022-08-17T09:53:51.828Z,641.6
2022-08-17T09:56:06.542Z,603.6
2022-08-17T09:58:07.242Z,576
2022-08-17T10:00:57.677Z,513.4
2022-08-17T10:03:31.677Z,542.2
2022-08-17T10:05:56.525Z,566.5
2022-08-17T10:07:59.091Z,576.1
2022-08-17T10:10:56.416Z,656.3
2022-08-17T10:13:35.783Z,620.6
2022-08-17T10:16:02.993Z,638.7
2022-08-17T10:18:16.036Z,660.1
2022-08-17T10:20:14.750Z,624.8
2022-08-17T10:23:02.328Z,601.4
2022-08-17T10:25:48.968Z,613.7
2022-08-17T10:27:54.892Z,624.8
2022-08-17T10:30:00.075Z,645.9
2022-08-17T10:32:53.801Z,695.3
2022-08-17T10:35:33.245Z,714.2
2022-08-17T10:37:58.462Z,781.4
2022-08-17T10:40:09.651Z,773.1
2022-08-17T10:43:09.388Z,741.7
2022-08-17T10:46:09.395Z,774.7
2022-08-17T10:48:26.602Z,726
2022-08-17T10:50:43.942Z,683.2
2022-08-17T10:52:47.048Z,661.7
2022-08-17T10:55:39.105Z,630.2
2022-08-17T10:58:16.905Z,576.3
2022-08-17T11:00:40.280Z,494
2022-08-17T11:02:50.117Z,417.2
2022-08-17T11:05:47.918Z,312.5
2022-08-17T11:08:31.926Z,252
2022-08-17T11:11:01.738Z,248.8
2022-08-17T11:13:17.439Z,248.7
2022-08-17T11:15:18.951Z,249.5
2022-08-17T11:18:09.389Z,239.5
2022-08-17T11:20:45.385Z,247.6
2022-08-17T11:23:07.277Z,283
2022-08-17T11:25:14.932Z,326.8
2022-08-17T11:28:11.525Z,378.7
2022-08-17T11:30:53.858Z,421.1
2022-08-17T11:33:21.796Z,481.4
2022-08-17T11:35:35.509Z,562.7
2022-08-17T11:37:35.251Z,607.8
2022-08-17T11:40:23.681Z,642.2
2022-08-17T11:42:57.884Z,620.3
2022-08-17T11:45:19.490Z,624.8
2022-08-17T11:47:24.026Z,804.4
2022-08-17T11:50:18.739Z,804.1
2022-08-17T11:52:58.961Z,658.2
2022-08-17T11:55:34.919Z,635.6
2022-08-17T11:57:37.426Z,1234.8
2022-08-17T11:59:35.498Z,882.5
2022-08-17T12:02:22.284Z,865.9
2022-08-17T12:04:54.885Z,611
2022-08-17T12:07:13.107Z,1161.9
2022-08-17T12:09:17.335Z,1072.9
2022-08-17T12:12:12.259Z,1069.7
2022-08-17T12:15:09.396Z,590.5
2022-08-17T12:17:13.694Z,648
2022-08-17T12:19:24.072Z,801.6
2022-08-17T12:22:23.128Z,993.9
2022-08-17T12:25:08.135Z,1032
2022-08-17T12:27:43.233Z,919
2022-08-17T12:29:55.419Z,840.3
2022-08-17T12:31:57.757Z,799.3
2022-08-17T12:34:48.892Z,665.6
2022-08-17T12:37:25.794Z,624.1
2022-08-17T12:39:48.311Z,503.3
2022-08-17T12:42:01.500Z,513.7
2022-08-17T12:44:53.607Z,616
2022-08-17T12:47:36.561Z,637.6
2022-08-17T12:50:05.525Z,894.4
2022-08-17T12:52:20.089Z,908.4
2022-08-17T12:54:20.471Z,785.2
2022-08-17T12:57:09.758Z,731.5
2022-08-17T12:59:45.212Z,659.8
2022-08-17T13:02:05.578Z,655.2
2022-08-17T13:04:12.407Z,556.3
2022-08-17T13:07:07.750Z,619.5
2022-08-17T13:09:48.881Z,621.4
2022-08-17T13:12:15.810Z,957.4
2022-08-17T13:14:28.697Z,811.5
2022-08-17T13:16:27.319Z,952.3
2022-08-17T13:19:14.604Z,911.6
2022-08-17T13:21:47.822Z,928.3
2022-08-17T13:24:06.882Z,992
2022-08-17T13:26:11.603Z,974
2022-08-17T13:29:05.250Z,956.1
2022-08-17T13:31:48.323Z,949.1
2022-08-17T13:34:09.749Z,960
2022-08-17T13:36:20.546Z,927
2022-08-17T13:39:20.191Z,647.8
2022-08-17T13:42:05.662Z,299.4
2022-08-17T13:44:37.063Z,292.2
2022-08-17T13:46:55.861Z,278.1
2022-08-17T13:48:57.145Z,296.1
2022-08-17T13:51:48.768Z,388.1
2022-08-17T13:54:26.436Z,408.6
2022-08-17T13:56:49.899Z,467.6
2022-08-17T13:58:59.117Z,516.3
2022-08-17T14:01:57.540Z,684.1
2022-08-17T14:04:40.938Z,698.8
2022-08-17T14:07:10.529Z,692.8
2022-08-17T14:09:25.831Z,1243.8
2022-08-17T14:11:27.095Z,692.4
2022-08-17T14:14:17.048Z,720.9
2022-08-17T14:16:52.679Z,692.8
2022-08-17T14:19:14.323Z,982
2022-08-17T14:21:21.909Z,697.6
2022-08-17T14:24:17.737Z,557.6
2022-08-17T14:26:59.794Z,977.9
2022-08-17T14:29:27.214Z,748.4
2022-08-17T14:31:40.727Z,1036.4
2022-08-17T14:33:40.297Z,893.4
2022-08-17T14:36:28.445Z,931.8
2022-08-17T14:38:43.244Z,601.6
2022-08-17T14:40:43.764Z,832.6
2022-08-17T14:43:32.948Z,801.6
2022-08-17T14:46:08.120Z,495.3
2022-08-17T14:48:29.067Z,640
2022-08-17T14:50:36.078Z,619.5
2022-08-17T14:53:31.082Z,519.2
2022-08-17T14:56:12.368Z,659.2
2022-08-17T14:58:39.223Z,676.1
2022-08-17T15:00:52.228Z,656.6
2022-08-17T15:02:51.022Z,532.3
2022-08-17T15:05:38.398Z,564.8
2022-08-17T15:08:11.522Z,436.3
2022-08-17T15:10:30.650Z,448.8
2022-08-17T15:12:35.535Z,427
2022-08-17T15:15:28.999Z,480.4
2022-08-17T15:18:08.537Z,512.9
2022-08-17T15:20:33.474Z,515.6
2022-08-17T15:22:44.494Z,534.4
2022-08-17T15:25:44.398Z,512.9
2022-08-17T15:28:30.038Z,490
2022-08-17T15:31:01.399Z,464.9
2022-08-17T15:33:18.623Z,448.4
2022-08-17T15:35:27.639Z,430.8
2022-08-17T15:38:13.612Z,404
2022-08-17T15:40:51.103Z,393.1
2022-08-17T15:43:14.659Z,385.7
2022-08-17T15:45:23.997Z,372.9
2022-08-17T15:48:22.081Z,360.6
2022-08-17T15:51:05.810Z,355
2022-08-17T15:53:35.444Z,348.3
2022-08-17T15:55:50.856Z,343.2
2022-08-17T15:57:52.496Z,338.5
2022-08-17T16:00:47.170Z,345.6
2022-08-17T16:03:46.495Z,342
2022-08-17T16:05:40.626Z,343
2022-08-17T16:07:47.318Z,343.2
2022-08-17T16:10:43.449Z,344.8
2022-08-17T16:13:24.983Z,344.1
2022-08-17T16:15:53.043Z,339.5
2022-08-17T16:18:06.616Z,326.8
2022-08-17T16:20:06.074Z,334.5
2022-08-17T16:22:54.895Z,370.5
2022-08-17T16:25:38.527Z,381.7
2022-08-17T16:27:48.239Z,395
2022-08-17T16:29:54.105Z,398.5
2022-08-17T16:32:48.549Z,400.1
2022-08-17T16:35:28.746Z,384.3
2022-08-17T16:37:54.747Z,361.9
2022-08-17T16:40:06.847Z,331.8
2022-08-17T16:42:04.532Z,303.1
2022-08-17T16:44:50.881Z,279.1
2022-08-17T16:47:23.225Z,284
2022-08-17T16:49:41.357Z,284.7
2022-08-17T16:51:45.277Z,288.2
2022-08-17T16:54:38.009Z,273.1
2022-08-17T16:57:16.507Z,269.2
2022-08-17T16:59:43.872Z,254.7
2022-08-17T17:01:51.065Z,251
2022-08-17T17:04:49.656Z,238.8
2022-08-17T17:10:04.663Z,228.9
2022-08-17T17:12:58.166Z,214.4
2022-08-17T17:14:23.239Z,206.3
2022-08-17T17:17:13.993Z,205.8
2022-08-17T17:19:50.751Z,204.4
2022-08-17T17:22:13.300Z,200.4
2022-08-17T17:24:21.595Z,194
2022-08-17T17:27:18.754Z,187.4
2022-08-17T17:30:01.686Z,173.2
2022-08-17T17:32:30.423Z,155.76
2022-08-17T17:34:47.843Z,144.8
2022-08-17T17:36:45.370Z,141.28
2022-08-17T17:39:34.462Z,139.4
2022-08-17T17:42:09.277Z,135.6
2022-08-17T17:44:30.146Z,130.48
2022-08-17T17:46:36.815Z,124.92
2022-08-17T17:49:32.081Z,117.92
2022-08-17T17:52:15.709Z,107.6
2022-08-17T17:54:40.113Z,101.52
2022-08-17T17:56:52.456Z,97.12
2022-08-17T17:58:51.185Z,92.08
2022-08-17T18:01:38.482Z,85.2
2022-08-17T18:04:17.072Z,80.92
2022-08-17T18:06:30.395Z,75.62
2022-08-17T18:08:35.263Z,72.04
2022-08-17T18:11:33.094Z,63.76
2022-08-17T18:14:07.859Z,58.74
2022-08-17T18:16:33.080Z,53.74
2022-08-17T18:18:44.125Z,47.68
2022-08-17T18:21:43.751Z,40.26
2022-08-17T18:24:29.472Z,32.84
2022-08-17T18:27:00.718Z,28.05
2022-08-17T18:29:17.865Z,23.72
2022-08-17T18:31:21.029Z,18.96
2022-08-17T18:34:29.324Z,15.4
2022-08-17T18:36:50.482Z,11.89
2022-08-17T18:39:13.727Z,9.61
2022-08-17T18:41:23.077Z,8.29
2022-08-17T18:44:20.994Z,6.3
2022-08-17T18:47:04.717Z,3.89
2022-08-17T18:49:34.099Z,3.7
2022-08-17T18:51:49.549Z,2.67
2022-08-17T18:53:50.807Z,1.76
2022-08-17T18:56:40.950Z,1.08
2022-08-17T18:59:16.856Z,0.75
2022-08-17T19:01:41.575Z,0.51
2022-08-17T19:03:46.020Z,0.34
2022-08-17T19:06:42.371Z,0.22
2022-08-17T19:09:24.336Z,0.15
2022-08-17T19:11:52.436Z,0.1
2022-08-17T19:14:05.982Z,0.07
2022-08-17T19:16:12.369Z,0.05
2022-08-17T19:18:53.804Z,0.03
2022-08-17T19:21:28.010Z,0.02
2022-08-17T19:25:53.622Z,0.01
2022-08-17T19:55:40.993Z,0.02
2022-08-17T19:57:51.256Z,0.01
2022-08-17T20:00:50.253Z,0
2022-08-17T20:03:35.086Z,0.01
2022-08-17T20:06:13.699Z,0
2022-08-17T20:35:36.917Z,0.01
2022-08-17T20:38:12.055Z,0
2022-08-17T20:48:35.925Z,0.01
2022-08-17T20:50:43.873Z,0
2022-08-17T22:12:18.021Z,0.01
2022-08-17T22:15:06.486Z,0
